sensor_id;sensor_type;location;lat;lon;timestamp;temperature;humidity
20915;DHT22;10617;52.032;5.298;2022-11-20T00:00:34;-1.20;99.90
20915;DHT22;10617;52.032;5.298;2022-11-20T00:04:36;-1.30;99.90
20915;DHT22;10617;52.032;5.298;2022-11-20T00:08:37;-1.30;99.90
20915;DHT22;10617;52.032;5.298;2022-11-20T00:12:39;-1.30;99.90
20915;DHT22;10617;52.032;5.298;2022-11-20T00:16:41;-1.40;99.90
20915;DHT22;10617;52.032;5.298;2022-11-20T00:20:42;-1.40;99.90
20915;DHT22;10617;52.032;5.298;2022-11-20T00:24:44;-1.50;99.90
20915;DHT22;10617;52.032;5.298;2022-11-20T00:28:52;-1.50;99.90
20915;DHT22;10617;52.032;5.298;2022-11-20T00:32:56;-1.60;99.90
20915;DHT22;10617;52.032;5.298;2022-11-20T00:36:57;-1.60;99.90
20915;DHT22;10617;52.032;5.298;2022-11-20T00:41:00;-1.60;99.90
20915;DHT22;10617;52.032;5.298;2022-11-20T00:45:02;-1.70;99.90
20915;DHT22;10617;52.032;5.298;2022-11-20T00:49:03;-1.70;99.90
20915;DHT22;10617;52.032;5.298;2022-11-20T00:53:05;-1.70;99.90
20915;DHT22;10617;52.032;5.298;2022-11-20T00:57:07;-1.80;99.90
20915;DHT22;10617;52.032;5.298;2022-11-20T01:01:09;-1.80;99.90
20915;DHT22;10617;52.032;5.298;2022-11-20T01:05:11;-1.90;99.90
20915;DHT22;10617;52.032;5.298;2022-11-20T01:09:13;-1.90;99.90
20915;DHT22;10617;52.032;5.298;2022-11-20T01:13:15;-2.00;99.90
20915;DHT22;10617;52.032;5.298;2022-11-20T01:17:35;-2.00;99.90
20915;DHT22;10617;52.032;5.298;2022-11-20T01:21:37;-2.00;99.90
20915;DHT22;10617;52.032;5.298;2022-11-20T01:25:39;-2.00;99.90
20915;DHT22;10617;52.032;5.298;2022-11-20T01:29:41;-2.10;99.90
20915;DHT22;10617;52.032;5.298;2022-11-20T01:33:43;-2.10;99.90
20915;DHT22;10617;52.032;5.298;2022-11-20T01:37:45;-2.20;99.90
20915;DHT22;10617;52.032;5.298;2022-11-20T01:41:47;-2.20;99.90
20915;DHT22;10617;52.032;5.298;2022-11-20T01:46:14;-2.20;99.90
20915;DHT22;10617;52.032;5.298;2022-11-20T01:50:19;-2.30;99.90
20915;DHT22;10617;52.032;5.298;2022-11-20T01:54:29;-2.30;99.90
20915;DHT22;10617;52.032;5.298;2022-11-20T01:58:33;-2.30;99.90
20915;DHT22;10617;52.032;5.298;2022-11-20T02:02:37;-2.40;99.90
20915;DHT22;10617;52.032;5.298;2022-11-20T02:06:43;-2.40;99.90
20915;DHT22;10617;52.032;5.298;2022-11-20T02:10:45;-2.40;99.90
20915;DHT22;10617;52.032;5.298;2022-11-20T02:14:47;-2.50;99.90
20915;DHT22;10617;52.032;5.298;2022-11-20T02:18:49;-2.60;99.90
20915;DHT22;10617;52.032;5.298;2022-11-20T02:22:58;-2.60;99.90
20915;DHT22;10617;52.032;5.298;2022-11-20T02:27:02;-2.60;99.90
20915;DHT22;10617;52.032;5.298;2022-11-20T02:31:04;-2.70;99.90
20915;DHT22;10617;52.032;5.298;2022-11-20T02:35:07;-2.70;99.90
20915;DHT22;10617;52.032;5.298;2022-11-20T02:39:09;-2.70;99.90
20915;DHT22;10617;52.032;5.298;2022-11-20T02:43:12;-2.70;99.90
20915;DHT22;10617;52.032;5.298;2022-11-20T02:47:14;-2.80;99.90
20915;DHT22;10617;52.032;5.298;2022-11-20T02:51:15;-2.80;99.90
20915;DHT22;10617;52.032;5.298;2022-11-20T02:55:17;-2.80;99.90
20915;DHT22;10617;52.032;5.298;2022-11-20T02:59:18;-2.80;99.90
20915;DHT22;10617;52.032;5.298;2022-11-20T03:03:20;-2.90;99.90
20915;DHT22;10617;52.032;5.298;2022-11-20T03:37:42;-2.90;99.90
20915;DHT22;10617;52.032;5.298;2022-11-20T03:41:44;-3.00;99.90
20915;DHT22;10617;52.032;5.298;2022-11-20T03:45:46;-3.00;99.90
20915;DHT22;10617;52.032;5.298;2022-11-20T03:49:47;-3.10;99.90
20915;DHT22;10617;52.032;5.298;2022-11-20T03:53:50;-3.20;99.90
20915;DHT22;10617;52.032;5.298;2022-11-20T03:57:52;-3.20;99.90
20915;DHT22;10617;52.032;5.298;2022-11-20T04:01:53;-3.30;99.90
20915;DHT22;10617;52.032;5.298;2022-11-20T04:05:55;-3.30;99.90
20915;DHT22;10617;52.032;5.298;2022-11-20T04:09:57;-3.30;99.90
20915;DHT22;10617;52.032;5.298;2022-11-20T04:13:59;-3.40;99.90
20915;DHT22;10617;52.032;5.298;2022-11-20T04:18:01;-3.50;99.90
20915;DHT22;10617;52.032;5.298;2022-11-20T04:22:02;-3.50;99.90
20915;DHT22;10617;52.032;5.298;2022-11-20T04:26:05;-3.50;99.90
20915;DHT22;10617;52.032;5.298;2022-11-20T04:30:07;-3.60;99.90
20915;DHT22;10617;52.032;5.298;2022-11-20T04:34:10;-3.60;99.90
20915;DHT22;10617;52.032;5.298;2022-11-20T04:38:12;-3.60;99.90
20915;DHT22;10617;52.032;5.298;2022-11-20T04:42:14;-3.60;99.90
20915;DHT22;10617;52.032;5.298;2022-11-20T04:46:32;-3.70;99.90
20915;DHT22;10617;52.032;5.298;2022-11-20T04:50:34;-3.70;99.90
20915;DHT22;10617;52.032;5.298;2022-11-20T04:54:35;-3.70;99.90
20915;DHT22;10617;52.032;5.298;2022-11-20T04:58:38;-3.70;99.90
20915;DHT22;10617;52.032;5.298;2022-11-20T05:02:40;-3.60;99.90
20915;DHT22;10617;52.032;5.298;2022-11-20T05:06:41;-3.70;99.90
20915;DHT22;10617;52.032;5.298;2022-11-20T05:10:43;-3.70;99.90
20915;DHT22;10617;52.032;5.298;2022-11-20T05:14:44;-3.80;99.90
20915;DHT22;10617;52.032;5.298;2022-11-20T05:18:46;-3.80;99.90
20915;DHT22;10617;52.032;5.298;2022-11-20T05:22:48;-3.90;99.90
20915;DHT22;10617;52.032;5.298;2022-11-20T05:26:50;-3.80;99.90
20915;DHT22;10617;52.032;5.298;2022-11-20T05:30:51;-3.90;99.90
20915;DHT22;10617;52.032;5.298;2022-11-20T05:34:53;-3.90;99.90
20915;DHT22;10617;52.032;5.298;2022-11-20T05:38:55;-3.90;99.90
20915;DHT22;10617;52.032;5.298;2022-11-20T05:43:02;-3.90;99.90
20915;DHT22;10617;52.032;5.298;2022-11-20T05:47:04;-4.00;99.90
20915;DHT22;10617;52.032;5.298;2022-11-20T05:51:06;-4.00;99.90
20915;DHT22;10617;52.032;5.298;2022-11-20T05:55:08;-4.00;99.90
20915;DHT22;10617;52.032;5.298;2022-11-20T05:59:09;-4.00;99.90
20915;DHT22;10617;52.032;5.298;2022-11-20T06:03:11;-3.90;99.90
20915;DHT22;10617;52.032;5.298;2022-11-20T06:07:13;-4.00;99.90
20915;DHT22;10617;52.032;5.298;2022-11-20T06:11:14;-4.10;99.90
20915;DHT22;10617;52.032;5.298;2022-11-20T06:15:16;-4.10;99.90
20915;DHT22;10617;52.032;5.298;2022-11-20T06:19:18;-4.10;99.90
20915;DHT22;10617;52.032;5.298;2022-11-20T06:23:20;-4.10;99.90
20915;DHT22;10617;52.032;5.298;2022-11-20T06:27:22;-4.10;99.90
20915;DHT22;10617;52.032;5.298;2022-11-20T06:31:24;-4.10;99.90
20915;DHT22;10617;52.032;5.298;2022-11-20T06:35:26;-4.10;99.90
20915;DHT22;10617;52.032;5.298;2022-11-20T06:39:27;-4.10;99.90
20915;DHT22;10617;52.032;5.298;2022-11-20T06:43:29;-4.10;99.90
20915;DHT22;10617;52.032;5.298;2022-11-20T06:47:31;-4.10;99.90
20915;DHT22;10617;52.032;5.298;2022-11-20T06:51:32;-4.10;99.90
20915;DHT22;10617;52.032;5.298;2022-11-20T06:55:34;-4.10;99.90
20915;DHT22;10617;52.032;5.298;2022-11-20T07:04:39;-4.10;99.90
20915;DHT22;10617;52.032;5.298;2022-11-20T07:08:41;-4.10;99.90
20915;DHT22;10617;52.032;5.298;2022-11-20T07:12:48;-4.10;99.90
20915;DHT22;10617;52.032;5.298;2022-11-20T07:16:50;-4.10;99.90
20915;DHT22;10617;52.032;5.298;2022-11-20T07:20:51;-4.00;99.90
20915;DHT22;10617;52.032;5.298;2022-11-20T07:24:53;-4.00;99.90
20915;DHT22;10617;52.032;5.298;2022-11-20T07:28:55;-3.90;99.90
20915;DHT22;10617;52.032;5.298;2022-11-20T07:32:56;-3.90;99.90
20915;DHT22;10617;52.032;5.298;2022-11-20T07:36:58;-3.90;99.90
20915;DHT22;10617;52.032;5.298;2022-11-20T07:41:00;-3.80;99.90
20915;DHT22;10617;52.032;5.298;2022-11-20T07:45:04;-3.70;99.90
20915;DHT22;10617;52.032;5.298;2022-11-20T07:49:06;-3.60;99.90
20915;DHT22;10617;52.032;5.298;2022-11-20T07:53:08;-3.50;99.90
20915;DHT22;10617;52.032;5.298;2022-11-20T07:57:09;-3.30;99.90
20915;DHT22;10617;52.032;5.298;2022-11-20T08:01:12;-3.20;99.90
20915;DHT22;10617;52.032;5.298;2022-11-20T08:05:13;-3.00;99.90
20915;DHT22;10617;52.032;5.298;2022-11-20T08:09:15;-2.90;99.90
20915;DHT22;10617;52.032;5.298;2022-11-20T08:13:16;-2.70;99.90
20915;DHT22;10617;52.032;5.298;2022-11-20T08:17:50;-2.50;99.90
20915;DHT22;10617;52.032;5.298;2022-11-20T08:22:12;-2.30;99.90
20915;DHT22;10617;52.032;5.298;2022-11-20T08:26:13;-2.10;99.90
20915;DHT22;10617;52.032;5.298;2022-11-20T08:30:15;-2.00;99.90
20915;DHT22;10617;52.032;5.298;2022-11-20T08:34:17;-1.90;99.90
20915;DHT22;10617;52.032;5.298;2022-11-20T08:38:19;-1.80;99.90
20915;DHT22;10617;52.032;5.298;2022-11-20T08:42:21;-1.70;99.90
20915;DHT22;10617;52.032;5.298;2022-11-20T08:46:23;-1.60;99.90
20915;DHT22;10617;52.032;5.298;2022-11-20T08:50:25;-1.60;99.90
20915;DHT22;10617;52.032;5.298;2022-11-20T08:54:27;-1.50;99.90
20915;DHT22;10617;52.032;5.298;2022-11-20T08:58:28;-1.40;99.90
20915;DHT22;10617;52.032;5.298;2022-11-20T09:02:31;-1.30;99.90
20915;DHT22;10617;52.032;5.298;2022-11-20T09:06:33;-1.20;99.90
20915;DHT22;10617;52.032;5.298;2022-11-20T09:10:35;-1.10;99.90
20915;DHT22;10617;52.032;5.298;2022-11-20T09:14:37;-1.00;99.90
20915;DHT22;10617;52.032;5.298;2022-11-20T09:18:39;-0.90;99.90
20915;DHT22;10617;52.032;5.298;2022-11-20T09:22:41;-0.80;99.90
20915;DHT22;10617;52.032;5.298;2022-11-20T09:26:42;-0.70;99.90
20915;DHT22;10617;52.032;5.298;2022-11-20T09:30:44;-0.60;99.90
20915;DHT22;10617;52.032;5.298;2022-11-20T09:45:05;-0.20;99.90
20915;DHT22;10617;52.032;5.298;2022-11-20T09:53:41;0.20;99.90
20915;DHT22;10617;52.032;5.298;2022-11-20T09:57:48;0.40;99.90
20915;DHT22;10617;52.032;5.298;2022-11-20T10:01:52;0.50;99.90
20915;DHT22;10617;52.032;5.298;2022-11-20T10:05:55;0.60;99.90
20915;DHT22;10617;52.032;5.298;2022-11-20T10:09:57;0.60;99.90
20915;DHT22;10617;52.032;5.298;2022-11-20T10:22:31;0.70;99.90
20915;DHT22;10617;52.032;5.298;2022-11-20T10:26:55;0.80;99.90
20915;DHT22;10617;52.032;5.298;2022-11-20T10:31:06;0.80;99.90
20915;DHT22;10617;52.032;5.298;2022-11-20T10:35:18;0.90;99.90
20915;DHT22;10617;52.032;5.298;2022-11-20T10:39:22;1.00;99.90
20915;DHT22;10617;52.032;5.298;2022-11-20T10:43:36;1.00;99.90
20915;DHT22;10617;52.032;5.298;2022-11-20T10:47:37;1.10;99.90
20915;DHT22;10617;52.032;5.298;2022-11-20T10:51:56;1.10;99.90
20915;DHT22;10617;52.032;5.298;2022-11-20T10:56:02;1.20;99.90
20915;DHT22;10617;52.032;5.298;2022-11-20T11:00:07;1.30;99.90
20915;DHT22;10617;52.032;5.298;2022-11-20T11:04:30;1.40;99.90
20915;DHT22;10617;52.032;5.298;2022-11-20T11:08:35;1.50;99.90
20915;DHT22;10617;52.032;5.298;2022-11-20T11:12:37;1.60;99.90
20915;DHT22;10617;52.032;5.298;2022-11-20T11:16:52;1.70;99.90
20915;DHT22;10617;52.032;5.298;2022-11-20T11:20:54;1.70;99.90
20915;DHT22;10617;52.032;5.298;2022-11-20T11:24:56;1.70;99.90
20915;DHT22;10617;52.032;5.298;2022-11-20T11:29:02;1.80;99.90
20915;DHT22;10617;52.032;5.298;2022-11-20T11:33:05;1.80;99.90
20915;DHT22;10617;52.032;5.298;2022-11-20T11:37:13;1.90;99.90
20915;DHT22;10617;52.032;5.298;2022-11-20T11:41:20;1.90;99.90
20915;DHT22;10617;52.032;5.298;2022-11-20T11:45:24;1.90;99.90
20915;DHT22;10617;52.032;5.298;2022-11-20T11:49:25;1.90;99.90
20915;DHT22;10617;52.032;5.298;2022-11-20T11:53:27;1.90;99.90
20915;DHT22;10617;52.032;5.298;2022-11-20T11:57:47;1.90;99.90
20915;DHT22;10617;52.032;5.298;2022-11-20T12:01:57;2.00;99.90
20915;DHT22;10617;52.032;5.298;2022-11-20T12:06:05;2.00;99.90
20915;DHT22;10617;52.032;5.298;2022-11-20T12:10:17;2.10;99.90
20915;DHT22;10617;52.032;5.298;2022-11-20T12:14:20;2.10;99.90
20915;DHT22;10617;52.032;5.298;2022-11-20T12:18:25;2.10;99.90
20915;DHT22;10617;52.032;5.298;2022-11-20T12:30:53;2.30;99.90
20915;DHT22;10617;52.032;5.298;2022-11-20T12:35:04;2.30;99.90
20915;DHT22;10617;52.032;5.298;2022-11-20T12:43:20;2.40;99.90
20915;DHT22;10617;52.032;5.298;2022-11-20T12:52:05;2.50;99.90
20915;DHT22;10617;52.032;5.298;2022-11-20T13:00:17;2.50;99.90
20915;DHT22;10617;52.032;5.298;2022-11-20T13:04:25;2.50;99.90
20915;DHT22;10617;52.032;5.298;2022-11-20T13:08:32;2.50;99.90
20915;DHT22;10617;52.032;5.298;2022-11-20T13:12:40;2.60;99.90
20915;DHT22;10617;52.032;5.298;2022-11-20T13:16:58;2.70;99.90
20915;DHT22;10617;52.032;5.298;2022-11-20T13:21:13;2.70;99.90
20915;DHT22;10617;52.032;5.298;2022-11-20T13:25:21;2.70;99.90
20915;DHT22;10617;52.032;5.298;2022-11-20T13:29:23;2.70;99.90
20915;DHT22;10617;52.032;5.298;2022-11-20T13:37:34;2.70;99.90
20915;DHT22;10617;52.032;5.298;2022-11-20T13:41:36;2.70;99.90
20915;DHT22;10617;52.032;5.298;2022-11-20T13:45:40;2.70;99.90
20915;DHT22;10617;52.032;5.298;2022-11-20T13:49:42;2.80;99.90
20915;DHT22;10617;52.032;5.298;2022-11-20T13:57:59;2.80;99.90
20915;DHT22;10617;52.032;5.298;2022-11-20T14:02:05;2.80;99.90
20915;DHT22;10617;52.032;5.298;2022-11-20T14:06:29;2.80;99.90
20915;DHT22;10617;52.032;5.298;2022-11-20T14:10:32;2.80;99.90
20915;DHT22;10617;52.032;5.298;2022-11-20T14:14:34;2.80;99.90
20915;DHT22;10617;52.032;5.298;2022-11-20T14:18:37;2.90;99.90
20915;DHT22;10617;52.032;5.298;2022-11-20T14:22:39;2.80;99.90
20915;DHT22;10617;52.032;5.298;2022-11-20T14:26:41;2.80;99.90
20915;DHT22;10617;52.032;5.298;2022-11-20T14:30:43;2.90;99.90
20915;DHT22;10617;52.032;5.298;2022-11-20T14:34:47;2.90;99.90
20915;DHT22;10617;52.032;5.298;2022-11-20T14:38:50;2.90;99.90
20915;DHT22;10617;52.032;5.298;2022-11-20T14:42:52;3.00;99.90
20915;DHT22;10617;52.032;5.298;2022-11-20T14:46:54;3.00;99.90
20915;DHT22;10617;52.032;5.298;2022-11-20T14:50:56;3.00;99.90
20915;DHT22;10617;52.032;5.298;2022-11-20T14:54:58;3.10;99.90
20915;DHT22;10617;52.032;5.298;2022-11-20T14:59:03;3.00;99.90
20915;DHT22;10617;52.032;5.298;2022-11-20T15:03:13;3.00;99.90
20915;DHT22;10617;52.032;5.298;2022-11-20T15:07:26;3.10;99.90
20915;DHT22;10617;52.032;5.298;2022-11-20T15:11:29;3.10;99.90
20915;DHT22;10617;52.032;5.298;2022-11-20T15:15:35;3.10;99.90
20915;DHT22;10617;52.032;5.298;2022-11-20T15:19:37;3.10;99.90
20915;DHT22;10617;52.032;5.298;2022-11-20T15:23:39;3.10;99.90
20915;DHT22;10617;52.032;5.298;2022-11-20T15:27:41;3.00;99.90
20915;DHT22;10617;52.032;5.298;2022-11-20T15:31:43;3.00;99.90
20915;DHT22;10617;52.032;5.298;2022-11-20T15:35:46;3.00;99.90
20915;DHT22;10617;52.032;5.298;2022-11-20T15:39:47;3.00;99.90
20915;DHT22;10617;52.032;5.298;2022-11-20T15:43:49;3.00;99.90
20915;DHT22;10617;52.032;5.298;2022-11-20T15:47:51;3.00;99.90
20915;DHT22;10617;52.032;5.298;2022-11-20T15:51:52;3.00;99.90
20915;DHT22;10617;52.032;5.298;2022-11-20T15:55:55;3.00;99.90
20915;DHT22;10617;52.032;5.298;2022-11-20T15:59:56;3.00;99.90
20915;DHT22;10617;52.032;5.298;2022-11-20T16:03:59;3.10;99.90
20915;DHT22;10617;52.032;5.298;2022-11-20T16:08:01;3.10;99.90
20915;DHT22;10617;52.032;5.298;2022-11-20T16:12:07;3.10;99.90
20915;DHT22;10617;52.032;5.298;2022-11-20T16:16:28;3.20;99.90
20915;DHT22;10617;52.032;5.298;2022-11-20T16:20:31;3.20;99.90
20915;DHT22;10617;52.032;5.298;2022-11-20T16:24:33;3.30;99.90
20915;DHT22;10617;52.032;5.298;2022-11-20T16:28:35;3.30;99.90
20915;DHT22;10617;52.032;5.298;2022-11-20T16:32:36;3.30;99.90
20915;DHT22;10617;52.032;5.298;2022-11-20T16:36:40;3.40;99.90
20915;DHT22;10617;52.032;5.298;2022-11-20T16:40:42;3.40;99.90
20915;DHT22;10617;52.032;5.298;2022-11-20T16:44:45;3.40;99.90
20915;DHT22;10617;52.032;5.298;2022-11-20T16:49:00;3.40;99.90
20915;DHT22;10617;52.032;5.298;2022-11-20T16:53:02;3.50;99.90
20915;DHT22;10617;52.032;5.298;2022-11-20T16:57:03;3.50;99.90
20915;DHT22;10617;52.032;5.298;2022-11-20T17:01:06;3.50;99.90
20915;DHT22;10617;52.032;5.298;2022-11-20T17:05:08;3.60;99.90
20915;DHT22;10617;52.032;5.298;2022-11-20T17:09:09;3.60;99.90
20915;DHT22;10617;52.032;5.298;2022-11-20T17:13:11;3.60;99.90
20915;DHT22;10617;52.032;5.298;2022-11-20T17:17:13;3.60;99.90
20915;DHT22;10617;52.032;5.298;2022-11-20T17:21:15;3.70;99.90
20915;DHT22;10617;52.032;5.298;2022-11-20T17:25:17;3.70;99.90
20915;DHT22;10617;52.032;5.298;2022-11-20T17:29:19;3.70;99.90
20915;DHT22;10617;52.032;5.298;2022-11-20T17:33:24;3.70;99.90
20915;DHT22;10617;52.032;5.298;2022-11-20T17:37:26;3.70;99.90
20915;DHT22;10617;52.032;5.298;2022-11-20T17:41:28;3.80;99.90
20915;DHT22;10617;52.032;5.298;2022-11-20T17:45:30;3.80;99.90
20915;DHT22;10617;52.032;5.298;2022-11-20T17:49:31;3.80;99.90
20915;DHT22;10617;52.032;5.298;2022-11-20T17:53:33;3.80;99.90
20915;DHT22;10617;52.032;5.298;2022-11-20T17:57:36;3.80;99.90
20915;DHT22;10617;52.032;5.298;2022-11-20T18:01:58;3.80;99.90
20915;DHT22;10617;52.032;5.298;2022-11-20T18:06:07;3.80;99.90
20915;DHT22;10617;52.032;5.298;2022-11-20T18:10:09;3.80;99.90
20915;DHT22;10617;52.032;5.298;2022-11-20T18:14:13;3.90;99.90
20915;DHT22;10617;52.032;5.298;2022-11-20T18:18:29;3.90;99.90
20915;DHT22;10617;52.032;5.298;2022-11-20T18:22:31;3.90;99.90
20915;DHT22;10617;52.032;5.298;2022-11-20T18:26:32;3.90;99.90
20915;DHT22;10617;52.032;5.298;2022-11-20T18:30:34;3.90;99.90
20915;DHT22;10617;52.032;5.298;2022-11-20T18:34:36;3.90;99.90
20915;DHT22;10617;52.032;5.298;2022-11-20T18:38:38;3.90;99.90
20915;DHT22;10617;52.032;5.298;2022-11-20T18:42:41;3.90;99.90
20915;DHT22;10617;52.032;5.298;2022-11-20T18:47:01;3.90;99.90
20915;DHT22;10617;52.032;5.298;2022-11-20T19:06:17;3.90;99.90
20915;DHT22;10617;52.032;5.298;2022-11-20T19:10:19;3.80;99.90
20915;DHT22;10617;52.032;5.298;2022-11-20T19:14:21;3.90;99.90
20915;DHT22;10617;52.032;5.298;2022-11-20T19:18:22;3.80;99.90
20915;DHT22;10617;52.032;5.298;2022-11-20T19:22:24;3.80;99.90
20915;DHT22;10617;52.032;5.298;2022-11-20T19:26:25;3.80;99.90
20915;DHT22;10617;52.032;5.298;2022-11-20T19:30:27;3.80;99.90
20915;DHT22;10617;52.032;5.298;2022-11-20T19:34:29;3.80;99.90
20915;DHT22;10617;52.032;5.298;2022-11-20T19:38:30;3.80;99.90
20915;DHT22;10617;52.032;5.298;2022-11-20T19:42:32;3.80;99.90
20915;DHT22;10617;52.032;5.298;2022-11-20T19:46:34;3.80;99.90
20915;DHT22;10617;52.032;5.298;2022-11-20T19:50:36;3.80;99.90
20915;DHT22;10617;52.032;5.298;2022-11-20T19:54:38;3.80;99.90
20915;DHT22;10617;52.032;5.298;2022-11-20T19:58:40;3.80;99.90
20915;DHT22;10617;52.032;5.298;2022-11-20T20:02:41;3.80;99.90
20915;DHT22;10617;52.032;5.298;2022-11-20T20:06:43;3.80;99.90
20915;DHT22;10617;52.032;5.298;2022-11-20T20:10:44;3.80;99.90
20915;DHT22;10617;52.032;5.298;2022-11-20T20:14:46;3.90;99.90
20915;DHT22;10617;52.032;5.298;2022-11-20T20:18:48;3.90;99.90
20915;DHT22;10617;52.032;5.298;2022-11-20T20:22:49;3.90;99.90
20915;DHT22;10617;52.032;5.298;2022-11-20T20:26:51;3.90;99.90
20915;DHT22;10617;52.032;5.298;2022-11-20T20:31:05;3.90;99.90
20915;DHT22;10617;52.032;5.298;2022-11-20T20:35:06;3.90;99.90
20915;DHT22;10617;52.032;5.298;2022-11-20T20:39:08;3.90;99.90
20915;DHT22;10617;52.032;5.298;2022-11-20T20:43:10;4.00;99.90
20915;DHT22;10617;52.032;5.298;2022-11-20T20:47:12;3.90;99.90
20915;DHT22;10617;52.032;5.298;2022-11-20T20:51:13;3.90;99.90
20915;DHT22;10617;52.032;5.298;2022-11-20T20:55:15;4.00;99.90
20915;DHT22;10617;52.032;5.298;2022-11-20T20:59:17;4.00;99.90
20915;DHT22;10617;52.032;5.298;2022-11-20T21:03:18;4.00;99.90
20915;DHT22;10617;52.032;5.298;2022-11-20T21:07:20;4.00;99.90
20915;DHT22;10617;52.032;5.298;2022-11-20T21:11:22;3.90;99.90
20915;DHT22;10617;52.032;5.298;2022-11-20T21:15:23;3.90;99.90
20915;DHT22;10617;52.032;5.298;2022-11-20T21:19:25;3.90;99.90
20915;DHT22;10617;52.032;5.298;2022-11-20T21:23:27;3.90;99.90
20915;DHT22;10617;52.032;5.298;2022-11-20T21:27:28;3.90;99.90
20915;DHT22;10617;52.032;5.298;2022-11-20T21:31:30;3.90;99.90
20915;DHT22;10617;52.032;5.298;2022-11-20T21:35:34;3.90;99.90
20915;DHT22;10617;52.032;5.298;2022-11-20T21:39:36;3.90;99.90
20915;DHT22;10617;52.032;5.298;2022-11-20T21:43:51;3.90;99.90
20915;DHT22;10617;52.032;5.298;2022-11-20T21:48:13;4.00;99.90
20915;DHT22;10617;52.032;5.298;2022-11-20T21:52:14;4.00;99.90
20915;DHT22;10617;52.032;5.298;2022-11-20T22:11:27;4.00;99.90
20915;DHT22;10617;52.032;5.298;2022-11-20T22:25:36;4.00;99.90
20915;DHT22;10617;52.032;5.298;2022-11-20T22:29:38;4.00;99.90
20915;DHT22;10617;52.032;5.298;2022-11-20T22:33:40;4.00;99.90
20915;DHT22;10617;52.032;5.298;2022-11-20T22:37:42;4.00;99.90
20915;DHT22;10617;52.032;5.298;2022-11-20T22:41:43;4.00;99.90
20915;DHT22;10617;52.032;5.298;2022-11-20T22:45:45;4.00;99.90
20915;DHT22;10617;52.032;5.298;2022-11-20T22:49:47;4.00;99.90
20915;DHT22;10617;52.032;5.298;2022-11-20T22:53:48;4.00;99.90
20915;DHT22;10617;52.032;5.298;2022-11-20T23:02:53;4.00;99.90
20915;DHT22;10617;52.032;5.298;2022-11-20T23:06:55;3.90;99.90
20915;DHT22;10617;52.032;5.298;2022-11-20T23:10:57;3.90;99.90
20915;DHT22;10617;52.032;5.298;2022-11-20T23:14:59;3.90;99.90
20915;DHT22;10617;52.032;5.298;2022-11-20T23:19:02;3.90;99.90
20915;DHT22;10617;52.032;5.298;2022-11-20T23:23:04;4.00;99.90
20915;DHT22;10617;52.032;5.298;2022-11-20T23:27:06;3.90;99.90
20915;DHT22;10617;52.032;5.298;2022-11-20T23:31:08;3.90;99.90
20915;DHT22;10617;52.032;5.298;2022-11-20T23:35:10;3.90;99.90
20915;DHT22;10617;52.032;5.298;2022-11-20T23:39:11;4.00;99.90
20915;DHT22;10617;52.032;5.298;2022-11-20T23:43:16;4.00;99.90
20915;DHT22;10617;52.032;5.298;2022-11-20T23:47:17;4.00;99.90
20915;DHT22;10617;52.032;5.298;2022-11-20T23:51:19;4.00;99.90
20915;DHT22;10617;52.032;5.298;2022-11-20T23:55:21;4.00;99.90
20915;DHT22;10617;52.032;5.298;2022-11-20T23:59:22;4.00;99.90
